createdAt,value
2019-03-23T00:00:08.852Z,72.74
2019-03-23T00:02:38.480Z,72.82
2019-03-23T00:05:09.141Z,72.80
2019-03-23T00:07:38.774Z,72.76
2019-03-23T00:10:08.683Z,72.70
2019-03-23T00:12:38.306Z,72.78
2019-03-23T00:15:10.479Z,72.98
2019-03-23T00:17:40.092Z,73.26
2019-03-23T00:20:09.795Z,74.20
2019-03-23T00:22:39.334Z,74.78
2019-03-23T00:25:08.955Z,75.21
2019-03-23T00:27:38.579Z,75.41
2019-03-23T00:30:09.244Z,76.02
2019-03-23T00:32:38.861Z,76.40
2019-03-23T00:35:08.972Z,77.10
2019-03-23T00:37:38.592Z,77.74
2019-03-23T00:40:08.574Z,77.98
2019-03-23T00:42:38.172Z,78.24
2019-03-23T00:45:08.670Z,78.31
2019-03-23T00:47:38.191Z,78.21
2019-03-23T00:50:08.612Z,78.17
2019-03-23T00:52:38.214Z,78.16
2019-03-23T00:55:08.465Z,78.25
2019-03-23T00:57:38.085Z,78.18
2019-03-23T01:00:09.233Z,78.28
2019-03-23T01:02:38.842Z,78.58
2019-03-23T01:05:08.949Z,79.03
2019-03-23T01:07:38.555Z,79.18
2019-03-23T01:10:09.248Z,79.22
2019-03-23T01:12:38.844Z,79.02
2019-03-23T01:15:08.558Z,78.93
2019-03-23T01:17:38.084Z,78.86
2019-03-23T01:20:09.331Z,78.71
2019-03-23T01:22:38.941Z,78.66
2019-03-23T01:25:09.959Z,78.61
2019-03-23T01:27:39.564Z,78.59
2019-03-23T01:30:10.503Z,78.61
2019-03-23T01:32:40.113Z,78.63
2019-03-23T01:35:09.739Z,78.98
2019-03-23T01:37:39.188Z,79.14
2019-03-23T01:40:09.088Z,79.18
2019-03-23T01:42:38.683Z,79.22
2019-03-23T01:45:08.933Z,79.17
2019-03-23T01:47:38.527Z,79.38
2019-03-23T01:50:08.299Z,79.73
2019-03-23T01:52:37.925Z,79.71
2019-03-23T01:55:08.264Z,79.70
2019-03-23T01:57:37.789Z,79.68
2019-03-23T02:00:08.011Z,79.42
2019-03-23T02:02:37.832Z,78.97
2019-03-23T02:05:08.276Z,78.97
2019-03-23T02:07:37.867Z,78.92
2019-03-23T02:10:07.955Z,79.03
2019-03-23T02:12:37.564Z,78.93
2019-03-23T02:15:07.494Z,78.89
2019-03-23T02:17:37.095Z,78.55
2019-03-23T02:20:08.274Z,78.76
2019-03-23T02:22:37.910Z,78.98
2019-03-23T02:25:07.921Z,79.36
2019-03-23T02:27:37.516Z,79.62
2019-03-23T02:30:08.545Z,79.99
2019-03-23T02:32:38.072Z,80.27
2019-03-23T02:35:08.412Z,80.63
2019-03-23T02:37:37.953Z,80.92
2019-03-23T02:40:08.129Z,81.13
2019-03-23T02:42:37.751Z,81.31
2019-03-23T02:45:08.223Z,81.45
2019-03-23T02:47:37.828Z,81.52
2019-03-23T02:50:08.201Z,81.63
2019-03-23T02:52:37.988Z,81.60
2019-03-23T02:55:08.761Z,81.54
2019-03-23T02:57:38.379Z,81.31
2019-03-23T03:00:08.626Z,81.12
2019-03-23T03:02:38.265Z,81.02
2019-03-23T03:05:09.559Z,80.96
2019-03-23T03:07:42.327Z,80.68
2019-03-23T03:10:11.130Z,80.57
2019-03-23T03:12:40.716Z,80.38
2019-03-23T03:15:10.371Z,80.18
2019-03-23T03:17:39.890Z,79.74
2019-03-23T03:20:10.398Z,79.62
2019-03-23T03:22:39.940Z,79.59
2019-03-23T03:25:10.075Z,79.60
2019-03-23T03:27:39.591Z,79.37
2019-03-23T03:30:10.230Z,79.23
2019-03-23T03:32:39.819Z,79.07
2019-03-23T03:35:09.959Z,78.59
2019-03-23T03:37:39.541Z,78.86
2019-03-23T03:40:09.184Z,78.74
2019-03-23T03:42:38.757Z,78.71
2019-03-23T03:45:09.287Z,78.53
2019-03-23T03:47:41.264Z,78.39
2019-03-23T03:50:10.376Z,78.19
2019-03-23T03:52:39.891Z,77.99
2019-03-23T03:55:09.519Z,77.72
2019-03-23T03:57:39.139Z,77.58
2019-03-23T04:00:09.220Z,77.53
2019-03-23T04:02:38.825Z,77.38
2019-03-23T04:05:08.428Z,77.25
2019-03-23T04:07:38.038Z,76.96
2019-03-23T04:10:08.408Z,76.83
2019-03-23T04:12:37.880Z,76.67
2019-03-23T04:15:07.617Z,76.75
2019-03-23T04:17:37.230Z,76.74
2019-03-23T04:20:07.392Z,76.80
2019-03-23T04:22:37.414Z,76.71
2019-03-23T04:25:07.350Z,76.61
2019-03-23T04:27:36.973Z,76.43
2019-03-23T04:30:06.799Z,76.29
2019-03-23T04:32:36.458Z,76.33
2019-03-23T04:35:07.252Z,76.03
2019-03-23T04:37:36.873Z,76.14
2019-03-23T04:40:07.370Z,76.17
2019-03-23T04:42:36.913Z,76.23
2019-03-23T04:45:08.694Z,76.15
2019-03-23T04:47:38.242Z,76.22
2019-03-23T04:50:08.616Z,76.14
2019-03-23T04:52:38.232Z,76.16
2019-03-23T04:55:10.025Z,75.97
2019-03-23T04:57:40.556Z,76.05
2019-03-23T05:00:12.081Z,75.87
2019-03-23T05:02:41.675Z,75.53
2019-03-23T05:05:11.275Z,75.61
2019-03-23T05:07:40.879Z,75.33
2019-03-23T05:10:11.551Z,75.25
2019-03-23T05:12:41.166Z,74.98
2019-03-23T05:15:10.983Z,75.09
2019-03-23T05:17:40.603Z,74.96
2019-03-23T05:20:10.505Z,75.04
2019-03-23T05:22:40.037Z,74.97
2019-03-23T05:25:16.266Z,74.98
2019-03-23T05:27:45.739Z,75.02
2019-03-23T05:30:15.334Z,74.94
2019-03-23T05:32:44.954Z,75.01
2019-03-23T05:35:14.538Z,74.94
2019-03-23T05:37:44.072Z,75.08
2019-03-23T05:40:13.666Z,74.99
2019-03-23T05:42:43.284Z,75.07
2019-03-23T05:45:12.868Z,75.23
2019-03-23T05:47:42.478Z,75.28
2019-03-23T05:50:12.069Z,75.29
2019-03-23T05:52:41.679Z,75.55
2019-03-23T05:55:11.499Z,75.75
2019-03-23T05:57:41.170Z,75.88
2019-03-23T06:00:13.966Z,76.05
2019-03-23T06:02:43.588Z,76.34
2019-03-23T06:05:13.174Z,76.56
2019-03-23T06:07:42.785Z,76.87
2019-03-23T06:10:12.503Z,77.32
2019-03-23T06:12:42.119Z,77.64
2019-03-23T06:15:11.723Z,77.91
2019-03-23T06:17:41.254Z,78.21
2019-03-23T06:20:11.184Z,78.51
2019-03-23T06:22:40.804Z,78.74
2019-03-23T06:25:10.401Z,79.04
2019-03-23T06:27:39.940Z,79.51
2019-03-23T06:30:10.035Z,80.11
2019-03-23T06:32:39.648Z,80.64
2019-03-23T06:35:09.594Z,81.19
2019-03-23T06:37:39.219Z,81.56
2019-03-23T06:40:09.949Z,81.91
2019-03-23T06:42:39.666Z,82.26
2019-03-23T06:45:10.021Z,82.46
2019-03-23T06:47:39.653Z,82.63
2019-03-23T06:50:09.879Z,83.26
2019-03-23T06:52:39.515Z,83.50
2019-03-23T06:55:09.448Z,83.75
2019-03-23T06:57:39.086Z,84.04
2019-03-23T07:00:10.697Z,84.29
2019-03-23T07:02:40.310Z,84.68
2019-03-23T07:05:10.400Z,85.11
2019-03-23T07:07:40.036Z,85.42
2019-03-23T07:10:10.320Z,85.79
2019-03-23T07:12:39.950Z,86.18
2019-03-23T07:15:19.399Z,86.38
2019-03-23T07:17:41.523Z,86.53
2019-03-23T07:20:12.165Z,86.91
2019-03-23T07:22:41.791Z,87.15
2019-03-23T07:25:11.952Z,87.18
2019-03-23T07:27:41.590Z,87.41
2019-03-23T07:30:13.221Z,87.62
2019-03-23T07:32:42.926Z,87.74
2019-03-23T07:35:12.844Z,87.63
2019-03-23T07:37:42.469Z,87.42
2019-03-23T07:40:12.282Z,87.38
2019-03-23T07:42:41.915Z,87.34
2019-03-23T07:45:11.841Z,87.35
2019-03-23T07:47:41.467Z,87.43
2019-03-23T07:50:11.483Z,87.46
2019-03-23T07:52:41.102Z,87.52
2019-03-23T07:55:15.044Z,87.44
2019-03-23T07:57:44.718Z,87.39
2019-03-23T08:00:16.867Z,87.12
2019-03-23T08:02:46.476Z,86.74
2019-03-23T08:05:16.099Z,86.14
2019-03-23T08:07:45.724Z,85.45
2019-03-23T08:10:31.988Z,84.69
2019-03-23T08:13:01.705Z,84.00
2019-03-23T08:15:31.389Z,83.24
2019-03-23T08:18:00.991Z,82.64
2019-03-23T08:20:30.612Z,82.04
2019-03-23T08:23:00.225Z,81.25
2019-03-23T08:25:29.850Z,80.48
2019-03-23T08:27:59.375Z,80.29
2019-03-23T08:30:28.985Z,79.28
2019-03-23T08:32:58.468Z,78.59
2019-03-23T08:35:28.172Z,77.62
2019-03-23T08:38:05.609Z,77.22
2019-03-23T08:40:52.300Z,76.11
2019-03-23T08:43:22.046Z,75.47
2019-03-23T08:45:54.466Z,74.75
2019-03-23T08:48:24.098Z,74.59
2019-03-23T08:51:03.096Z,74.57
2019-03-23T08:53:42.294Z,74.36
2019-03-23T08:56:15.730Z,74.23
2019-03-23T08:58:43.197Z,73.34
2019-03-23T09:01:13.016Z,72.77
2019-03-23T09:03:52.004Z,72.05
2019-03-23T09:06:17.233Z,72.35
2019-03-23T09:08:50.954Z,71.61
2019-03-23T09:12:11.524Z,71.80
2019-03-23T09:15:08.406Z,71.36
2019-03-23T09:17:52.165Z,70.60
2019-03-23T09:20:52.656Z,70.45
2019-03-23T09:24:03.593Z,70.96
2019-03-23T09:27:08.132Z,69.91
2019-03-23T09:29:51.549Z,69.48
2019-03-23T09:32:27.895Z,68.63
2019-03-23T09:35:05.553Z,68.55
2019-03-23T09:37:52.328Z,68.53
2019-03-23T09:40:25.388Z,68.47
2019-03-23T09:43:11.002Z,68.02
2019-03-23T09:45:36.374Z,67.25
2019-03-23T09:48:05.977Z,66.44
2019-03-23T09:50:35.600Z,66.62
2019-03-23T09:53:05.228Z,66.02
2019-03-23T09:55:34.769Z,66.51
2019-03-23T09:58:04.398Z,66.05
2019-03-23T10:00:33.949Z,65.96
2019-03-23T10:03:03.565Z,65.68
2019-03-23T10:05:33.193Z,65.98
2019-03-23T10:08:02.797Z,65.65
2019-03-23T10:10:32.346Z,64.63
2019-03-23T10:13:01.953Z,64.16
2019-03-23T10:15:31.594Z,63.67
2019-03-23T10:18:01.723Z,62.77
2019-03-23T10:20:31.532Z,61.78
2019-03-23T10:23:01.135Z,62.03
2019-03-23T10:25:30.677Z,61.39
2019-03-23T10:28:00.276Z,60.47
2019-03-23T10:30:29.902Z,59.72
2019-03-23T10:32:59.511Z,56.36
2019-03-23T10:35:29.132Z,57.36
2019-03-23T10:37:58.683Z,57.08
2019-03-23T10:40:32.698Z,57.41
2019-03-23T10:42:59.635Z,57.17
2019-03-23T10:45:29.261Z,56.44
2019-03-23T10:47:58.720Z,56.14
2019-03-23T10:50:28.383Z,55.41
2019-03-23T10:52:58.000Z,54.72
2019-03-23T10:55:27.529Z,54.83
2019-03-23T10:57:57.174Z,55.25
2019-03-23T11:00:26.705Z,54.46
2019-03-23T11:02:56.256Z,54.24
2019-03-23T11:05:25.867Z,54.88
2019-03-23T11:07:55.412Z,54.09
2019-03-23T11:10:25.019Z,54.01
2019-03-23T11:12:54.668Z,54.43
2019-03-23T11:15:24.275Z,53.24
2019-03-23T11:17:53.832Z,52.70
2019-03-23T11:20:23.441Z,51.32
2019-03-23T11:22:53.069Z,50.91
2019-03-23T11:25:22.692Z,50.60
2019-03-23T11:27:52.233Z,50.82
2019-03-23T11:30:21.840Z,50.82
2019-03-23T11:32:51.466Z,50.82
2019-03-23T11:35:21.243Z,51.16
2019-03-23T11:37:51.130Z,50.24
2019-03-23T11:40:20.859Z,49.95
2019-03-23T11:42:50.617Z,50.73
2019-03-23T11:45:20.229Z,50.13
2019-03-23T11:47:49.877Z,50.66
2019-03-23T11:50:19.541Z,50.49
2019-03-23T11:52:49.080Z,49.81
2019-03-23T11:55:18.695Z,49.36
2019-03-23T11:57:48.266Z,47.19
2019-03-23T12:00:17.965Z,49.05
2019-03-23T12:02:47.594Z,48.51
2019-03-23T12:05:17.205Z,47.52
2019-03-23T12:07:46.832Z,48.50
2019-03-23T12:10:16.445Z,48.96
2019-03-23T12:12:46.184Z,49.71
2019-03-23T12:15:15.994Z,49.27
2019-03-23T12:17:45.548Z,47.52
2019-03-23T12:20:15.249Z,45.87
2019-03-23T12:22:44.882Z,46.84
2019-03-23T12:25:15.009Z,47.74
2019-03-23T12:27:44.653Z,47.83
2019-03-23T12:30:15.958Z,47.07
2019-03-23T12:32:45.733Z,46.93
2019-03-23T12:35:15.350Z,47.50
2019-03-23T12:37:44.970Z,47.30
2019-03-23T12:40:15.796Z,47.64
2019-03-23T12:42:45.449Z,47.15
2019-03-23T12:45:15.141Z,47.71
2019-03-23T12:47:44.741Z,47.60
2019-03-23T12:50:15.166Z,46.33
2019-03-23T12:52:44.770Z,46.84
2019-03-23T12:55:14.388Z,47.05
2019-03-23T12:57:44.017Z,46.97
2019-03-23T13:00:14.242Z,47.33
2019-03-23T13:02:44.045Z,47.58
2019-03-23T13:05:13.975Z,47.24
2019-03-23T13:07:43.506Z,47.48
2019-03-23T13:10:13.485Z,47.30
2019-03-23T13:12:43.084Z,47.08
2019-03-23T13:15:13.125Z,47.50
2019-03-23T13:17:42.744Z,46.33
2019-03-23T13:20:12.502Z,46.84
2019-03-23T13:22:42.169Z,47.64
2019-03-23T13:25:11.898Z,48.05
2019-03-23T13:27:42.304Z,48.34
2019-03-23T13:30:12.417Z,48.73
2019-03-23T13:32:42.018Z,47.60
2019-03-23T13:35:11.750Z,47.86
2019-03-23T13:37:41.302Z,47.95
2019-03-23T13:40:11.293Z,48.56
2019-03-23T13:42:40.892Z,48.62
2019-03-23T13:45:10.928Z,47.58
2019-03-23T13:47:40.557Z,47.39
2019-03-23T13:50:10.929Z,46.03
2019-03-23T13:52:40.533Z,47.82
2019-03-23T13:55:14.985Z,48.52
2019-03-23T13:57:44.607Z,48.29
2019-03-23T14:00:14.363Z,48.65
2019-03-23T14:02:43.966Z,48.03
2019-03-23T14:05:16.336Z,48.47
2019-03-23T14:07:44.913Z,46.25
2019-03-23T14:10:14.542Z,47.37
2019-03-23T14:12:44.082Z,47.53
2019-03-23T14:15:13.698Z,47.71
2019-03-23T14:17:43.304Z,48.43
2019-03-23T14:20:12.925Z,47.75
2019-03-23T14:22:42.449Z,47.71
2019-03-23T14:25:12.068Z,48.11
2019-03-23T14:27:41.598Z,48.42
2019-03-23T14:30:11.454Z,48.30
2019-03-23T14:32:41.022Z,48.41
2019-03-23T14:35:10.598Z,48.49
2019-03-23T14:37:40.197Z,47.88
2019-03-23T14:40:09.954Z,47.67
2019-03-23T14:42:39.551Z,47.78
2019-03-23T14:45:09.292Z,48.01
2019-03-23T14:47:38.888Z,47.70
2019-03-23T14:50:08.904Z,46.92
2019-03-23T14:52:38.498Z,46.50
2019-03-23T14:55:08.863Z,46.48
2019-03-23T14:57:40.466Z,46.37
2019-03-23T15:00:10.633Z,46.72
2019-03-23T15:02:40.193Z,45.85
2019-03-23T15:05:09.996Z,46.09
2019-03-23T15:07:39.618Z,46.08
2019-03-23T15:10:09.827Z,46.87
2019-03-23T15:12:39.450Z,47.26
2019-03-23T15:15:09.072Z,47.26
2019-03-23T15:17:48.246Z,47.19
2019-03-23T15:20:10.038Z,46.37
2019-03-23T15:22:39.697Z,46.41
2019-03-23T15:25:09.369Z,46.86
2019-03-23T15:27:38.921Z,47.14
2019-03-23T15:30:08.763Z,47.10
2019-03-23T15:32:38.426Z,47.19
2019-03-23T15:35:08.285Z,48.02
2019-03-23T15:37:37.834Z,48.09
2019-03-23T15:40:08.142Z,48.19
2019-03-23T15:42:37.860Z,48.70
2019-03-23T15:45:08.288Z,49.44
2019-03-23T15:47:37.918Z,49.47
2019-03-23T15:50:08.633Z,49.51
2019-03-23T15:52:38.186Z,49.56
2019-03-23T15:55:08.023Z,49.92
2019-03-23T15:57:37.884Z,49.42
2019-03-23T16:00:09.798Z,50.07
2019-03-23T16:02:39.347Z,50.17
2019-03-23T16:05:09.049Z,50.40
2019-03-23T16:07:38.673Z,50.92
2019-03-23T16:10:09.080Z,51.07
2019-03-23T16:12:38.817Z,50.57
2019-03-23T16:15:10.678Z,50.86
2019-03-23T16:17:40.302Z,51.14
2019-03-23T16:20:10.941Z,50.89
2019-03-23T16:22:40.564Z,51.24
2019-03-23T16:25:11.074Z,51.83
2019-03-23T16:27:40.701Z,52.17
2019-03-23T16:30:12.167Z,52.33
2019-03-23T16:32:41.809Z,52.63
2019-03-23T16:35:11.640Z,52.69
2019-03-23T16:37:41.262Z,52.75
2019-03-23T16:40:11.773Z,53.17
2019-03-23T16:42:45.630Z,53.46
2019-03-23T16:45:12.947Z,54.05
2019-03-23T16:47:42.569Z,54.21
2019-03-23T16:50:12.375Z,54.70
2019-03-23T16:52:42.028Z,55.08
2019-03-23T16:55:12.477Z,55.18
2019-03-23T16:57:42.119Z,55.45
2019-03-23T17:00:12.161Z,55.73
2019-03-23T17:02:41.783Z,55.79
2019-03-23T17:05:11.727Z,55.85
2019-03-23T17:07:41.350Z,56.20
2019-03-23T17:10:10.964Z,56.66
2019-03-23T17:12:40.520Z,56.75
2019-03-23T17:15:10.410Z,56.90
2019-03-23T17:17:40.050Z,57.44
2019-03-23T17:20:10.087Z,57.71
2019-03-23T17:22:39.712Z,58.03
2019-03-23T17:25:09.423Z,57.92
2019-03-23T17:27:38.976Z,58.57
2019-03-23T17:30:09.529Z,58.86
2019-03-23T17:32:39.239Z,58.86
2019-03-23T17:35:08.889Z,59.16
2019-03-23T17:37:38.418Z,59.36
2019-03-23T17:40:08.734Z,59.53
2019-03-23T17:42:38.348Z,59.62
2019-03-23T17:45:08.560Z,59.92
2019-03-23T17:47:38.092Z,60.30
2019-03-23T17:50:09.448Z,60.26
2019-03-23T17:52:39.046Z,60.48
2019-03-23T17:55:08.795Z,60.71
2019-03-23T17:57:38.420Z,61.00
2019-03-23T18:00:09.295Z,61.16
2019-03-23T18:02:38.939Z,61.41
2019-03-23T18:05:08.993Z,61.61
2019-03-23T18:07:38.597Z,61.62
2019-03-23T18:10:08.546Z,61.65
2019-03-23T18:12:38.213Z,61.54
2019-03-23T18:15:09.032Z,61.74
2019-03-23T18:17:38.633Z,61.74
2019-03-23T18:20:08.874Z,61.95
2019-03-23T18:22:38.481Z,62.20
2019-03-23T18:25:08.813Z,62.15
2019-03-23T18:27:38.405Z,62.12
2019-03-23T18:30:17.295Z,62.17
2019-03-23T18:32:46.896Z,62.13
2019-03-23T18:35:16.526Z,61.90
2019-03-23T18:37:46.132Z,61.83
2019-03-23T18:40:16.648Z,61.96
2019-03-23T18:42:46.237Z,62.12
2019-03-23T18:45:15.858Z,62.36
2019-03-23T18:47:45.473Z,62.34
2019-03-23T18:50:15.093Z,62.43
2019-03-23T18:52:44.705Z,62.54
2019-03-23T18:55:14.332Z,62.58
2019-03-23T18:57:43.970Z,62.49
2019-03-23T19:00:17.003Z,62.57
2019-03-23T19:02:46.611Z,62.67
2019-03-23T19:05:16.239Z,62.92
2019-03-23T19:07:45.842Z,63.27
2019-03-23T19:10:15.571Z,63.43
2019-03-23T19:12:45.196Z,63.44
2019-03-23T19:15:14.937Z,63.66
2019-03-23T19:17:44.581Z,63.77
2019-03-23T19:20:14.275Z,63.94
2019-03-23T19:22:43.886Z,64.05
2019-03-23T19:25:18.128Z,64.28
2019-03-23T19:27:44.893Z,64.46
2019-03-23T19:30:14.936Z,64.65
2019-03-23T19:32:44.540Z,64.77
2019-03-23T19:35:14.185Z,64.84
2019-03-23T19:37:43.790Z,64.94
2019-03-23T19:40:13.632Z,65.03
2019-03-23T19:42:43.236Z,65.28
2019-03-23T19:45:12.861Z,65.46
2019-03-23T19:47:42.466Z,65.69
2019-03-23T19:50:12.405Z,65.95
2019-03-23T19:52:42.007Z,66.15
2019-03-23T19:55:11.693Z,66.12
2019-03-23T19:57:41.260Z,66.27
2019-03-23T20:00:11.731Z,66.39
2019-03-23T20:02:41.333Z,66.36
2019-03-23T20:05:10.966Z,66.52
2019-03-23T20:07:40.562Z,66.62
2019-03-23T20:10:10.507Z,66.78
2019-03-23T20:12:40.101Z,66.77
2019-03-23T20:15:10.467Z,66.83
2019-03-23T20:17:40.166Z,66.79
2019-03-23T20:20:10.411Z,66.95
2019-03-23T20:22:40.034Z,66.92
2019-03-23T20:25:09.924Z,67.11
2019-03-23T20:27:39.471Z,67.07
2019-03-23T20:30:10.145Z,67.32
2019-03-23T20:32:39.761Z,67.44
2019-03-23T20:35:10.492Z,67.50
2019-03-23T20:37:40.101Z,67.63
2019-03-23T20:40:10.335Z,67.80
2019-03-23T20:42:39.938Z,67.87
2019-03-23T20:45:11.107Z,68.01
2019-03-23T20:47:41.687Z,68.15
2019-03-23T20:50:11.889Z,68.32
2019-03-23T20:52:41.830Z,68.41
2019-03-23T20:55:24.229Z,68.56
2019-03-23T20:57:54.363Z,68.66
2019-03-23T21:00:23.961Z,68.75
2019-03-23T21:02:53.602Z,68.84
2019-03-23T21:05:33.089Z,68.88
2019-03-23T21:07:54.574Z,69.05
2019-03-23T21:10:24.104Z,69.11
2019-03-23T21:12:53.745Z,69.08
2019-03-23T21:15:23.351Z,69.07
2019-03-23T21:17:52.978Z,68.99
2019-03-23T21:20:22.583Z,68.76
2019-03-23T21:22:52.142Z,68.37
2019-03-23T21:25:21.670Z,68.38
2019-03-23T21:27:51.296Z,68.15
2019-03-23T21:30:21.697Z,67.45
2019-03-23T21:32:51.312Z,66.65
2019-03-23T21:35:20.909Z,66.05
2019-03-23T21:37:50.531Z,65.87
2019-03-23T21:40:20.123Z,65.44
2019-03-23T21:42:49.737Z,65.46
2019-03-23T21:45:19.332Z,65.36
2019-03-23T21:47:48.957Z,65.41
2019-03-23T21:50:18.566Z,65.59
2019-03-23T21:52:48.393Z,65.60
2019-03-23T21:55:17.995Z,65.62
2019-03-23T21:57:47.636Z,65.15
2019-03-23T22:00:30.487Z,64.81
2019-03-23T22:03:00.129Z,64.87
2019-03-23T22:05:29.706Z,65.01
2019-03-23T22:07:59.541Z,64.98
2019-03-23T22:10:29.132Z,64.80
2019-03-23T22:12:58.674Z,64.90
2019-03-23T22:15:31.604Z,64.69
2019-03-23T22:18:01.228Z,64.71
2019-03-23T22:20:30.756Z,64.62
2019-03-23T22:23:00.565Z,64.58
2019-03-23T22:25:30.155Z,64.36
2019-03-23T22:27:59.772Z,64.52
2019-03-23T22:30:29.367Z,64.62
2019-03-23T22:32:58.982Z,64.43
2019-03-23T22:35:28.505Z,64.65
2019-03-23T22:37:58.132Z,64.49
2019-03-23T22:40:28.292Z,64.27
2019-03-23T22:42:58.036Z,64.02
2019-03-23T22:45:27.621Z,63.80
2019-03-23T22:47:57.231Z,63.68
2019-03-23T22:50:26.825Z,63.59
2019-03-23T22:52:56.450Z,63.50
2019-03-23T22:55:26.037Z,63.43
2019-03-23T22:57:55.782Z,63.42
2019-03-23T23:00:33.184Z,63.45
2019-03-23T23:03:03.241Z,63.29
2019-03-23T23:05:32.826Z,63.25
2019-03-23T23:08:02.445Z,63.22
2019-03-23T23:10:32.025Z,63.24
2019-03-23T23:13:01.635Z,63.43
2019-03-23T23:15:31.229Z,63.41
2019-03-23T23:18:00.777Z,63.62
2019-03-23T23:20:30.361Z,63.67
2019-03-23T23:22:59.978Z,63.68
2019-03-23T23:25:29.575Z,63.93
2019-03-23T23:27:59.176Z,63.84
2019-03-23T23:30:28.692Z,63.98
2019-03-23T23:32:58.234Z,64.04
2019-03-23T23:35:28.127Z,64.05
2019-03-23T23:37:57.662Z,64.16
2019-03-23T23:40:27.262Z,64.06
2019-03-23T23:42:56.883Z,64.02
2019-03-23T23:45:26.479Z,64.10
2019-03-23T23:47:56.094Z,64.27
2019-03-23T23:50:25.619Z,64.43
2019-03-23T23:52:55.234Z,64.38
2019-03-23T23:55:24.829Z,64.47
2019-03-23T23:57:54.459Z,64.71
